Marche Airport

LIPY · 马尔凯, 意大利

METAR的历史 LIPY · Ancona Falconara Airport

下面你可以看到过去几天的METARs。 选择年份以浏览从2007年开始的旧METAR。

2022年12月9日

时间 代码 天气 温度 能见度 天花板 METAR/SPECI
16:20
V
18 °C 10 km+ 9.900 ft 200° 200° 6 kt METAR LIPY 091520Z AUTO 20006KT 9999 BKN099/// 18/10 Q1000
15:50
V
18 °C 10 km+ 10.000 ft 200° 200° 4 kt METAR LIPY 091450Z AUTO 20004KT 160V230 9999 FEW054/// BKN100/// 18/11 Q1000
15:20
V
19 °C 10 km+ 10.000 ft 190° 190° 8 kt METAR LIPY 091420Z AUTO 19008KT 160V230 9999 BKN100/// BKN140/// 19/10 Q0999
14:50
V
19 °C 10 km+ 7.900 ft 190° 190° 6 kt METAR LIPY 091350Z AUTO 19006KT 150V230 9999 FEW055/// BKN079/// 19/10 Q0999
14:20
V
19 °C 10 km+ 11.000 ft 190° 190° 3 kt METAR LIPY 091320Z AUTO 19003KT 090V240 9999 FEW054/// BKN110/// 19/11 Q1000
13:50
V
18 °C 10 km+ 15.000 ft 200° 200° 4 kt METAR LIPY 091250Z AUTO 20004KT 140V250 9999 FEW056/// BKN150/// 18/11 Q1000
13:20
V
17 °C 10 km+ 5.700 ft Var Var 3 kt METAR LIPY 091220Z AUTO VRB03KT 9999 BKN057/// BKN140/// BKN190/// 17/11 Q1000
12:50
V
17 °C 10 km+ 6.000 ft Var Var 3 kt METAR LIPY 091150Z AUTO VRB03KT 9999 BKN060/// 17/12 Q1000
12:20
V
17 °C 10 km+ 22.000 ft 070° 070° 4 kt METAR LIPY 091120Z AUTO 07004KT 040V100 9999 SCT062/// BKN220/// 17/12 Q1001
11:50
V
17 °C 10 km+ 22.000 ft 120° 120° 4 kt METAR LIPY 091050Z AUTO 12004KT 060V160 9999 FEW063/// BKN220/// 17/10 Q1001
11:20
V
17 °C 10 km+ 6.100 ft 150° 150° 5 kt METAR LIPY 091020Z AUTO 15005KT 110V190 9999 BKN061/// 17/10 Q1002
10:50
V
13 °C 10 km+ 6.700 ft Var Var 2 kt METAR LIPY 090950Z AUTO VRB02KT 9999 BKN067/// 13/12 Q1002
10:20
M
12 °C 5 km 6.900 ft Var Var 2 kt METAR LIPY 090920Z AUTO VRB02KT 5000 BR BKN069/// 12/11 Q1003
09:50
I
11 °C 3,8 km - Var Var 1 kt METAR LIPY 090850Z AUTO VRB01KT 3800 BR FEW072/// SCT160/// 11/10 Q1003
09:20
I
11 °C 3,2 km 16.000 ft Var Var 2 kt METAR LIPY 090820Z AUTO VRB02KT 3200 BR FEW089/// SCT130/// BKN160/// 11/10 Q1003
08:50
I
10 °C 2,2 km 8.800 ft Var Var 2 kt METAR LIPY 090750Z AUTO VRB02KT 2200 BR FEW067/// BKN088/// BKN180/// 10/10 Q1004
08:20
I
10 °C 2,4 km 12.000 ft Var Var 2 kt METAR LIPY 090720Z AUTO VRB02KT 2400 BR FEW061/// SCT090/// BKN120/// 10/10 Q1004
07:50
I
10 °C 2,6 km 10.000 ft Var Var 2 kt METAR LIPY 090650Z AUTO VRB02KT 2600 BR FEW069/// BKN100/// 10/10 Q1005
07:20
I
10 °C 3,7 km 6.300 ft Var Var 1 kt METAR LIPY 090620Z AUTO VRB01KT 3700 BR OVC063/// 10/10 Q1005
06:50
I
10 °C 4,3 km 6.600 ft Var Var 2 kt METAR LIPY 090550Z AUTO VRB02KT 4300 BR OVC066/// 10/10 Q1005
06:20
M
10 °C 5 km 5.200 ft Var Var 1 kt METAR LIPY 090520Z AUTO VRB01KT 5000 BR BKN052/// 10/10 Q1006
05:50
M
10 °C 5 km 5.800 ft Var Var 2 kt METAR LIPY 090450Z AUTO VRB02KT 5000 BR OVC058/// 10/10 Q1006
05:20
M
10 °C 6 km 5.900 ft Var Var 2 kt METAR LIPY 090420Z AUTO VRB02KT 6000 OVC059/// 10/10 Q1006
04:50
M
10 °C 6 km 6.200 ft Var Var 2 kt METAR LIPY 090350Z AUTO VRB02KT 6000 BKN062/// 10/10 Q1006
04:20
M
10 °C 7 km 6.300 ft Var Var 2 kt METAR LIPY 090320Z AUTO VRB02KT 7000 -RA BKN063/// OVC100/// 10/10 Q1006
03:50
M
10 °C 7 km 11.000 ft Var Var 1 kt METAR LIPY 090250Z AUTO VRB01KT 7000 BKN110/// 10/10 Q1007
03:20
V
10 °C 8 km 11.000 ft Var Var 1 kt METAR LIPY 090220Z AUTO VRB01KT 8000 OVC110/// 10/10 Q1007
02:50
V
10 °C 10 km+ 9.000 ft Var Var 2 kt METAR LIPY 090150Z AUTO VRB02KT 9999 BKN090/// BKN120/// 10/10 Q1008
02:20
V
10 °C 8 km 9.900 ft Var Var 2 kt METAR LIPY 090120Z AUTO VRB02KT 8000 BKN099/// 10/09 Q1008
01:50
V
10 °C 9 km 10.000 ft 210° 210° 3 kt METAR LIPY 090050Z AUTO 21003KT 170V240 9000 BKN100/// 10/09 Q1008
01:20
V
10 °C 9 km 7.600 ft Var Var 2 kt METAR LIPY 090020Z AUTO VRB02KT 9000 OVC076/// 10/09 Q1008
00:50
V
10 °C 8 km 12.000 ft 250° 250° 3 kt METAR LIPY 082350Z AUTO 25003KT 8000 OVC120/// 10/09 Q1008
00:20
V
12 °C 10 km+ 12.000 ft 200° 200° 4 kt METAR LIPY 082320Z AUTO 20004KT 160V230 9999 OVC120/// 12/10 Q1008

2022年12月8日

时间 代码 天气 温度 能见度 天花板 METAR/SPECI
23:50
V
11 °C 10 km+ 12.000 ft 240° 240° 4 kt METAR LIPY 082250Z AUTO 24004KT 200V260 9999 OVC120/// 11/10 Q1009
23:20
V
12 °C 10 km+ 12.000 ft 200° 200° 3 kt METAR LIPY 082220Z AUTO 20003KT 9999 OVC120/// 12/10 Q1009
22:50
V
11 °C 9 km 12.000 ft 190° 190° 4 kt METAR LIPY 082150Z AUTO 19004KT 9000 OVC120/// 11/10 Q1009
22:20
V
11 °C 10 km+ - Var Var 2 kt METAR LIPY 082120Z AUTO VRB02KT 9999 NCD 11/10 Q1009
21:50
V
11 °C 8 km 12.000 ft 210° 210° 3 kt METAR LIPY 082050Z AUTO 21003KT 160V250 8000 SCT094/// BKN120/// 11/09 Q1010
21:20
M
10 °C 7 km 9.100 ft 210° 210° 2 kt METAR LIPY 082020Z AUTO 21002KT 7000 FEW072/// BKN091/// 10/09 Q1010
20:50
M
10 °C 6 km 8.100 ft Var Var 1 kt METAR LIPY 081950Z AUTO VRB01KT 6000 OVC081/// 10/09 Q1010
20:20
M
9 °C 5 km 8.800 ft 270° 270° 4 kt METAR LIPY 081920Z AUTO 27004KT 5000 BR BKN088/// BKN120/// 09/09 Q1010
19:50
M
10 °C 7 km 9.100 ft Var Var 1 kt METAR LIPY 081850Z AUTO VRB01KT 7000 BKN091/// 10/09 Q1010
19:20
M
10 °C 7 km 9.700 ft Var Var 2 kt METAR LIPY 081820Z AUTO VRB02KT 7000 FEW011/// BKN097/// 10/09 Q1010
18:50
V
10 °C 9 km 9.600 ft Var Var 2 kt METAR LIPY 081750Z AUTO VRB02KT 9000 SCT010/// BKN096/// 10/09 Q1010
18:20
M
10 °C 10 km+ 1.000 ft Var Var 1 kt METAR LIPY 081720Z AUTO VRB01KT 9999 BKN010/// OVC110/// 10/09 Q1010
17:50
M
10 °C 9 km 1.000 ft Var Var 2 kt METAR LIPY 081650Z AUTO VRB02KT 9000 BKN010/// BKN068/// BKN130/// 10/09 Q1011
17:20
V
10 °C 10 km+ 12.000 ft 070° 070° 2 kt METAR LIPY 081620Z AUTO 07002KT 9999 FEW012/// SCT068/// BKN120/// 10/08 Q1011
16:50
V
10 °C 10 km+ 10.000 ft Var Var 1 kt METAR LIPY 081550Z AUTO VRB01KT 9999 SCT012/// SCT059/// BKN100/// 10/08 Q1011
16:20
V
10 °C 10 km+ 6.600 ft Var Var 2 kt METAR LIPY 081520Z AUTO VRB02KT 9999 BKN066/// BKN120/// 10/08 Q1010
15:50
V
11 °C 10 km+ 6.000 ft Var Var 1 kt METAR LIPY 081450Z AUTO VRB01KT 9999 OVC060/// 11/08 Q1010
15:20
V
11 °C 10 km+ 5.500 ft Var Var 1 kt METAR LIPY 081420Z AUTO VRB01KT 9999 BKN055/// BKN130/// 11/08 Q1010
14:50
V
11 °C 10 km+ 6.100 ft Var Var 2 kt METAR LIPY 081350Z AUTO VRB02KT 9999 BKN061/// BKN130/// 11/08 Q1010
14:20
V
11 °C 10 km+ 6.200 ft Var Var 1 kt METAR LIPY 081320Z AUTO VRB01KT 9999 BKN062/// BKN130/// 11/08 Q1010
13:50
V
10 °C 10 km+ 6.500 ft Var Var 2 kt METAR LIPY 081250Z AUTO VRB02KT 9999 BKN065/// BKN130/// 10/07 Q1010
13:20
V
10 °C 10 km+ 13.000 ft 040° 040° 3 kt METAR LIPY 081220Z AUTO 04003KT 360V080 9999 BKN130/// 10/07 Q1010
12:50
V
10 °C 10 km+ - 350° 350° 3 kt METAR LIPY 081150Z AUTO 35003KT 310V030 9999 FEW063/// 10/07 Q1010
12:20
V
11 °C 10 km+ - 350° 350° 4 kt METAR LIPY 081120Z AUTO 35004KT 330V040 9999 FEW017/// SCT068/// 11/08 Q1010
11:50
V
11 °C 10 km+ - 340° 340° 4 kt METAR LIPY 081050Z AUTO 34004KT 300V010 9999 FEW066/// 11/08 Q1011
11:20
V
11 °C 10 km+ 6.700 ft Var Var 2 kt METAR LIPY 081020Z AUTO VRB02KT 9999 BKN067/// 11/08 Q1011
10:50
V
10 °C 10 km+ - Var Var 2 kt METAR LIPY 080950Z AUTO VRB02KT 9999 FEW009/// SCT073/// 10/08 Q1011
10:20
V
9 °C 10 km+ 7.400 ft 220° 220° 3 kt METAR LIPY 080920Z AUTO 22003KT 9999 SCT011/// BKN074/// 09/08 Q1011
09:50
M
9 °C 10 km+ 1.000 ft Var Var 2 kt METAR LIPY 080850Z AUTO VRB02KT 9999 OVC010/// 09/08 Q1011
09:20
M
9 °C 8 km 1.000 ft Var Var 2 kt METAR LIPY 080820Z AUTO VRB02KT 8000 OVC010/// 09/08 Q1011
08:50
M
8 °C 7 km 1.100 ft Var Var 2 kt METAR LIPY 080750Z AUTO VRB02KT 7000 OVC011/// 08/07 Q1011
08:20
M
8 °C 5 km 1.100 ft Var Var 1 kt METAR LIPY 080720Z AUTO VRB01KT 5000 BR OVC011/// 08/07 Q1011
07:50
I
8 °C 4,9 km 1.200 ft 230° 230° 3 kt METAR LIPY 080650Z AUTO 23003KT 200V260 4900 BR OVC012/// 08/07 Q1011
07:20
I
8 °C 4,8 km 1.400 ft 240° 240° 2 kt METAR LIPY 080620Z AUTO 24002KT 4800 BR OVC014/// 08/07 Q1011
06:50
M
8 °C 5 km 1.400 ft Var Var 2 kt METAR LIPY 080550Z AUTO VRB02KT 5000 BR OVC014/// 08/07 Q1011
06:20
M
8 °C 5 km 1.300 ft 230° 230° 2 kt METAR LIPY 080520Z AUTO 23002KT 5000 BR OVC013/// 08/07 Q1011
05:50
I
8 °C 4,4 km 1.200 ft 250° 250° 3 kt METAR LIPY 080450Z AUTO 25003KT 220V290 4400 BR OVC012/// 08/07 Q1011
05:20
I
8 °C 3,2 km 1.100 ft Var Var 1 kt METAR LIPY 080420Z AUTO VRB01KT 3200 -RA BR BKN011/// OVC018/// 08/07 Q1011
04:50
I
8 °C 2,7 km 1.300 ft Var Var 2 kt METAR LIPY 080350Z AUTO VRB02KT 2700 -RA BR BKN013/// BKN043/// OVC059/// 08/07 Q1011
04:20
I
8 °C 3 km 3.600 ft Var Var 1 kt METAR LIPY 080320Z AUTO VRB01KT 3000 -RA BR SCT021/// BKN036/// OVC055/// 08/07 Q1011 RERA
03:50
I
8 °C 2,5 km 1.500 ft Var Var 1 kt METAR LIPY 080250Z AUTO VRB01KT 2500 RA BR BKN015/// OVC047/// 08/07 Q1011
03:20
M
8 °C 5 km 1.500 ft Var Var 1 kt METAR LIPY 080220Z AUTO VRB01KT 5000 -RA OVC015/// 08/07 Q1011
02:50
M
8 °C 6 km 1.600 ft 260° 260° 4 kt METAR LIPY 080150Z AUTO 26004KT 240V310 6000 OVC016/// 08/07 Q1012
02:20
M
8 °C 6 km 1.500 ft Var Var 2 kt METAR LIPY 080120Z AUTO VRB02KT 6000 OVC015/// 08/07 Q1012
01:50
M
8 °C 5 km 1.500 ft Var Var 1 kt METAR LIPY 080050Z AUTO VRB01KT 5000 -RA OVC015/// 08/07 Q1012 REDZ
01:20
M
8 °C 6 km 1.500 ft Var Var 1 kt METAR LIPY 080020Z AUTO VRB01KT 6000 DZ OVC015/// 08/07 Q1012
00:50
M
8 °C 6 km 1.500 ft Var Var 2 kt METAR LIPY 072350Z AUTO VRB02KT 6000 OVC015/// 08/07 Q1012
00:20
M
8 °C 7 km 1.500 ft 280° 280° 2 kt METAR LIPY 072320Z AUTO 28002KT 7000 OVC015/// 08/07 Q1012

2022年12月7日

时间 代码 天气 温度 能见度 天花板 METAR/SPECI
23:50
M
9 °C 6 km 1.500 ft Var Var 2 kt METAR LIPY 072250Z AUTO VRB02KT 6000 OVC015/// 09/08 Q1012
23:20
M
8 °C 5 km 1.600 ft Var Var 1 kt METAR LIPY 072220Z AUTO VRB01KT 5000 BR OVC016/// 08/08 Q1012
22:50
I
8 °C 4,6 km 1.600 ft Var Var 2 kt METAR LIPY 072150Z AUTO VRB02KT 4600 BR OVC016/// 08/08 Q1012
22:20
I
9 °C 3,8 km 1.500 ft 230° 230° 2 kt METAR LIPY 072120Z AUTO 23002KT 3800 BR OVC015/// 09/08 Q1012
21:50
I
8 °C 4 km 1.500 ft 210° 210° 3 kt METAR LIPY 072050Z AUTO 21003KT 4000 BR OVC015/// 08/08 Q1012
21:20
I
8 °C 3,8 km 1.500 ft Var Var 2 kt METAR LIPY 072020Z AUTO VRB02KT 3800 BR OVC015/// 08/08 Q1012
20:50
I
8 °C 4 km 1.300 ft 210° 210° 3 kt METAR LIPY 071950Z AUTO 21003KT 180V240 4000 BR OVC013/// 08/08 Q1012
20:20
I
8 °C 4,4 km 1.400 ft Var Var 1 kt METAR LIPY 071920Z AUTO VRB01KT 4400 -RA BR OVC014/// 08/07 Q1012
19:50
I
8 °C 3,9 km 1.400 ft Var Var 1 kt METAR LIPY 071850Z AUTO VRB01KT 3900 -RA BR OVC014/// 08/08 Q1012
19:20
I
8 °C 4,3 km 1.600 ft 250° 250° 3 kt METAR LIPY 071820Z AUTO 25003KT 4300 -RA BR OVC016/// 08/08 Q1012
18:50
M
8 °C 6 km 1.500 ft 250° 250° 3 kt METAR LIPY 071750Z AUTO 25003KT 210V280 6000 -RA OVC015/// 08/08 Q1012
18:20
M
8 °C 6 km 1.600 ft Var Var 2 kt METAR LIPY 071720Z AUTO VRB02KT 6000 OVC016/// 08/07 Q1012
17:50
M
8 °C 5 km 1.200 ft Var Var 2 kt METAR LIPY 071650Z AUTO VRB02KT 5000 -RA OVC012/// 08/08 Q1012 REDZ
17:20
M
8 °C 5 km 1.000 ft 260° 260° 3 kt METAR LIPY 071620Z AUTO 26003KT 230V300 5000 -RA OVC010/// 08/08 Q1012
16:50
M
9 °C 5 km 1.500 ft 260° 260° 4 kt METAR LIPY 071550Z AUTO 26004KT 230V300 5000 -RA OVC015/// 09/08 Q1012
16:20
M
9 °C 7 km 1.400 ft 290° 290° 5 kt METAR LIPY 071520Z AUTO 29005KT 260V320 7000 -RA OVC014/// 09/08 Q1012
15:50
M
9 °C 6 km 1.200 ft 330° 330° 6 kt METAR LIPY 071450Z AUTO 33006KT 6000 -RA OVC012/// 09/08 Q1012
15:20
M
9 °C 5 km 1.100 ft 330° 330° 4 kt METAR LIPY 071420Z AUTO 33004KT 290V010 5000 -RA OVC011/// 09/08 Q1012
14:50
M
9 °C 6 km 1.200 ft 330° 330° 8 kt METAR LIPY 071350Z AUTO 33008KT 6000 -RA OVC012/// 09/07 Q1012
14:20
M
9 °C 8 km 1.100 ft 330° 330° 9 kt METAR LIPY 071320Z AUTO 33009KT 8000 OVC011/// 09/08 Q1012
13:50
M
9 °C 8 km 1.300 ft 320° 320° 7 kt METAR LIPY 071250Z AUTO 32007KT 8000 OVC013/// 09/08 Q1012
13:20
M
9 °C 9 km 1.200 ft 330° 330° 8 kt METAR LIPY 071220Z AUTO 33008KT 9000 OVC012/// 09/07 Q1012
12:50
I
9 °C 10 km+ 900 ft 330° 330° 9 kt METAR LIPY 071150Z AUTO 33009KT 9999 OVC009/// 09/08 Q1012
12:20
I
9 °C 9 km 800 ft 320° 320° 8 kt METAR LIPY 071120Z AUTO 32008KT 9000 OVC008/// 09/08 Q1013
11:50
I
9 °C 8 km 900 ft 310° 310° 7 kt METAR LIPY 071050Z AUTO 31007KT 8000 OVC009/// 09/08 Q1013
11:20
I
9 °C 9 km 700 ft 320° 320° 6 kt METAR LIPY 071020Z AUTO 32006KT 290V350 9000 OVC007/// 09/08 Q1013
10:50
I
9 °C 7 km 700 ft 330° 330° 5 kt METAR LIPY 070950Z AUTO 33005KT 7000 OVC007/// 09/08 Q1013

我们和第三方通过cookies跟踪您在我们网站上的互联网行为。如果你继续,我们认为你同意我们的饼干政策